createdAt,value
2022-10-11T00:00:52.587Z,99715.56
2022-10-11T00:01:54.335Z,99710.47
2022-10-11T00:02:56.013Z,99701.28
2022-10-11T00:03:57.679Z,99708.44
2022-10-11T00:04:59.348Z,99704.94
2022-10-11T00:06:03.430Z,99709.84
2022-10-11T00:07:05.456Z,99673.97
2022-10-11T00:08:07.324Z,99708.66
2022-10-11T00:09:11.757Z,99699.88
2022-10-11T00:10:13.420Z,99709.06
2022-10-11T00:11:15.167Z,99693.94
2022-10-11T00:12:16.811Z,99709.66
2022-10-11T00:13:18.494Z,99707.03
2022-10-11T00:14:20.159Z,99707.81
2022-10-11T00:15:23.213Z,99703.78
2022-10-11T00:16:24.932Z,99703.34
2022-10-11T00:17:27.195Z,99708.22
2022-10-11T00:18:28.928Z,99704.13
2022-10-11T00:19:30.609Z,99710.09
2022-10-11T00:20:32.370Z,99681.94
2022-10-11T00:21:34.052Z,99685.00
2022-10-11T00:22:37.519Z,99698.44
2022-10-11T00:23:39.647Z,99706.19
2022-10-11T00:24:41.388Z,99700.25
2022-10-11T00:25:43.139Z,99701.28
2022-10-11T00:26:46.978Z,99712.31
2022-10-11T00:27:48.942Z,99679.47
2022-10-11T00:28:52.958Z,99703.91
2022-10-11T00:29:54.767Z,99712.06
2022-10-11T00:30:56.987Z,99709.22
2022-10-11T00:31:58.693Z,99692.50
2022-10-11T00:33:00.445Z,99706.34
2022-10-11T00:34:02.156Z,99706.16
2022-10-11T00:35:06.548Z,99699.81
2022-10-11T00:36:09.381Z,99699.41
2022-10-11T00:37:11.293Z,99695.53
2022-10-11T00:38:13.002Z,99672.69
2022-10-11T00:39:14.945Z,99662.72
2022-10-11T00:40:19.373Z,99697.41
2022-10-11T00:41:21.094Z,99690.06
2022-10-11T00:42:23.140Z,99689.84
2022-10-11T00:43:27.061Z,99690.69
2022-10-11T00:44:29.909Z,99691.28
2022-10-11T00:45:31.549Z,99690.06
2022-10-11T00:46:33.416Z,99688.22
2022-10-11T00:47:35.286Z,99688.84
2022-10-11T00:48:41.021Z,99684.78
2022-10-11T00:49:59.338Z,99685.81
2022-10-11T00:51:05.150Z,99687.44
2022-10-11T00:52:11.803Z,99683.34
2022-10-11T00:53:14.167Z,99685.81
2022-10-11T00:54:20.825Z,99688.88
2022-10-11T00:55:26.871Z,99688.69
2022-10-11T00:56:34.411Z,99683.38
2022-10-11T00:57:41.992Z,99676.44
2022-10-11T00:58:44.190Z,99671.16
2022-10-11T00:59:50.676Z,99678.47
2022-10-11T01:00:53.844Z,99676.81
2022-10-11T01:01:55.842Z,99680.94
2022-10-11T01:02:58.396Z,99669.09
2022-10-11T01:04:01.658Z,99677.47
2022-10-11T01:05:27.782Z,99680.50
2022-10-11T01:06:27.214Z,99676.84
2022-10-11T01:07:31.412Z,99683.59
2022-10-11T01:08:33.218Z,99681.94
2022-10-11T01:09:35.156Z,99685.63
2022-10-11T01:10:37.089Z,99681.72
2022-10-11T01:11:41.039Z,99685.78
2022-10-11T01:13:11.517Z,99680.69
2022-10-11T01:14:34.191Z,99681.09
2022-10-11T01:15:48.376Z,99678.84
2022-10-11T01:16:57.684Z,99678.47
2022-10-11T01:18:10.712Z,99672.34
2022-10-11T01:19:42.802Z,99674.59
2022-10-11T01:20:59.241Z,99674.59
2022-10-11T01:22:06.639Z,99680.28
2022-10-11T01:23:28.847Z,99679.25
2022-10-11T01:24:30.419Z,99676.81
2022-10-11T01:25:44.211Z,99675.78
2022-10-11T01:26:51.640Z,99675.59
2022-10-11T01:28:14.612Z,99678.47
2022-10-11T01:29:22.119Z,99668.28
2022-10-11T01:30:30.170Z,99680.69
2022-10-11T01:31:52.117Z,99678.84
2022-10-11T01:33:25.814Z,99670.28
2022-10-11T01:34:56.144Z,99672.34
2022-10-11T01:35:57.768Z,99671.31
2022-10-11T01:37:06.038Z,99669.09
2022-10-11T01:38:17.190Z,99662.16
2022-10-11T01:39:29.279Z,99661.34
2022-10-11T01:40:42.146Z,99659.28
2022-10-11T01:41:51.528Z,99659.69
2022-10-11T01:42:55.999Z,99658.47
2022-10-11T01:44:02.606Z,99660.91
2022-10-11T01:45:05.758Z,99651.13
2022-10-11T01:46:09.604Z,99654.78
2022-10-11T01:47:11.309Z,99660.09
2022-10-11T01:48:13.960Z,99657.66
2022-10-11T01:49:15.619Z,99642.34
2022-10-11T01:50:49.751Z,99654.19
2022-10-11T01:51:55.180Z,99651.75
2022-10-11T01:53:02.867Z,99650.09
2022-10-11T01:54:07.519Z,99648.69
2022-10-11T01:55:10.134Z,99652.56
2022-10-11T01:56:42.873Z,99653.56
2022-10-11T01:57:57.793Z,99653.78
2022-10-11T01:59:20.549Z,99648.47
2022-10-11T02:00:26.072Z,99628.50
2022-10-11T02:01:54.584Z,99647.47
2022-10-11T02:03:12.384Z,99643.78
2022-10-11T02:04:14.071Z,99639.91
2022-10-11T02:05:42.125Z,99642.16
2022-10-11T02:06:58.830Z,99646.84
2022-10-11T02:08:19.161Z,99641.94
2022-10-11T02:09:32.986Z,99635.84
2022-10-11T02:11:05.184Z,99639.69
2022-10-11T02:12:12.042Z,99643.19
2022-10-11T02:13:40.112Z,99632.38
2022-10-11T02:14:47.186Z,99648.47
2022-10-11T02:15:51.473Z,99637.28
2022-10-11T02:16:57.864Z,99643.59
2022-10-11T02:18:03.417Z,99645.81
2022-10-11T02:19:08.315Z,99644.78
2022-10-11T02:20:14.569Z,99648.25
2022-10-11T02:21:20.402Z,99631.75
2022-10-11T02:22:30.427Z,99645.22
2022-10-11T02:23:39.220Z,99635.81
2022-10-11T02:24:44.613Z,99641.31
2022-10-11T02:25:48.330Z,99627.47
2022-10-11T02:26:54.703Z,99650.13
2022-10-11T02:28:01.724Z,99640.97
2022-10-11T02:29:08.132Z,99650.34
2022-10-11T02:30:12.529Z,99651.56
2022-10-11T02:31:16.514Z,99628.91
2022-10-11T02:32:19.782Z,99645.63
2022-10-11T02:33:27.984Z,99635.63
2022-10-11T02:34:37.743Z,99646.22
2022-10-11T02:35:44.731Z,99639.28
2022-10-11T02:37:24.639Z,99647.00
2022-10-11T02:38:59.275Z,99649.25
2022-10-11T02:40:19.659Z,99647.00
2022-10-11T02:41:39.744Z,99635.38
2022-10-11T02:42:46.124Z,99642.91
2022-10-11T02:44:16.005Z,99643.53
2022-10-11T02:45:25.447Z,99648.63
2022-10-11T02:46:30.655Z,99644.75
2022-10-11T02:47:32.893Z,99645.16
2022-10-11T02:48:35.862Z,99643.13
2022-10-11T02:49:37.660Z,99621.13
2022-10-11T02:50:40.386Z,99624.78
2022-10-11T02:51:42.426Z,99642.09
2022-10-11T02:52:44.129Z,99646.81
2022-10-11T02:53:45.860Z,99617.66
2022-10-11T02:54:47.583Z,99648.59
2022-10-11T02:55:51.624Z,99628.03
2022-10-11T02:56:53.641Z,99640.63
2022-10-11T02:57:55.288Z,99648.19
2022-10-11T02:58:56.936Z,99626.34
2022-10-11T02:59:58.598Z,99638.97
2022-10-11T03:01:00.335Z,99639.56
2022-10-11T03:02:02.151Z,99635.69
2022-10-11T03:03:03.934Z,99638.34
2022-10-11T03:04:05.821Z,99637.13
2022-10-11T03:05:07.864Z,99641.19
2022-10-11T03:06:09.690Z,99637.72
2022-10-11T03:07:11.670Z,99639.97
2022-10-11T03:08:15.169Z,99643.25
2022-10-11T03:09:16.830Z,99639.56
2022-10-11T03:10:18.629Z,99638.56
2022-10-11T03:11:20.348Z,99638.31
2022-10-11T03:12:22.082Z,99640.75
2022-10-11T03:13:23.827Z,99639.53
2022-10-11T03:14:25.559Z,99628.13
2022-10-11T03:15:27.336Z,99622.00
2022-10-11T03:16:29.026Z,99639.13
2022-10-11T03:17:36.644Z,99639.94
2022-10-11T03:18:38.895Z,99641.56
2022-10-11T03:19:40.561Z,99642.19
2022-10-11T03:20:42.383Z,99643.00
2022-10-11T03:21:44.487Z,99641.72
2022-10-11T03:22:46.180Z,99639.88
2022-10-11T03:23:47.820Z,99643.81
2022-10-11T03:24:49.468Z,99640.75
2022-10-11T03:25:52.232Z,99644.84
2022-10-11T03:26:53.937Z,99637.88
2022-10-11T03:27:55.624Z,99632.19
2022-10-11T03:28:57.493Z,99628.09
2022-10-11T03:29:59.432Z,99624.22
2022-10-11T03:31:01.103Z,99630.34
2022-10-11T03:32:03.160Z,99632.19
2022-10-11T03:33:04.805Z,99633.19
2022-10-11T03:34:06.472Z,99631.56
2022-10-11T03:35:08.517Z,99632.19
2022-10-11T03:36:10.216Z,99627.94
2022-10-11T03:37:11.903Z,99625.84
2022-10-11T03:38:15.512Z,99631.16
2022-10-11T03:39:17.337Z,99627.47
2022-10-11T03:40:18.986Z,99634.63
2022-10-11T03:41:20.660Z,99629.31
2022-10-11T03:42:22.436Z,99625.28
2022-10-11T03:43:24.113Z,99631.00
2022-10-11T03:44:25.963Z,99628.53
2022-10-11T03:45:27.854Z,99615.53
2022-10-11T03:46:29.697Z,99631.00
2022-10-11T03:47:32.382Z,99633.06
2022-10-11T03:48:34.354Z,99628.97
2022-10-11T03:49:39.887Z,99627.72
2022-10-11T03:50:44.370Z,99619.97
2022-10-11T03:51:46.036Z,99628.97
2022-10-11T03:52:47.697Z,99625.28
2022-10-11T03:53:49.375Z,99617.53
2022-10-11T03:54:51.028Z,99620.59
2022-10-11T03:55:56.076Z,99624.06
2022-10-11T03:56:58.690Z,99612.88
2022-10-11T03:58:00.875Z,99616.50
2022-10-11T03:59:02.649Z,99610.22
2022-10-11T04:00:06.686Z,99618.38
2022-10-11T04:01:08.994Z,99611.44
2022-10-11T04:02:11.031Z,99620.44
2022-10-11T04:03:12.838Z,99616.34
2022-10-11T04:04:14.586Z,99621.25
2022-10-11T04:05:16.738Z,99624.56
2022-10-11T04:06:18.402Z,99619.06
2022-10-11T04:07:20.075Z,99623.38
2022-10-11T04:08:21.830Z,99624.81
2022-10-11T04:09:23.484Z,99619.50
2022-10-11T04:10:25.199Z,99623.81
2022-10-11T04:11:27.143Z,99622.41
2022-10-11T04:12:29.007Z,99618.09
2022-10-11T04:13:31.026Z,99615.22
2022-10-11T04:14:32.741Z,99615.63
2022-10-11T04:15:34.471Z,99594.44
2022-10-11T04:16:38.850Z,99613.41
2022-10-11T04:17:41.462Z,99609.94
2022-10-11T04:18:43.165Z,99618.09
2022-10-11T04:19:44.812Z,99615.84
2022-10-11T04:20:46.481Z,99613.59
2022-10-11T04:21:48.118Z,99617.88
2022-10-11T04:22:50.569Z,99615.03
2022-10-11T04:23:52.266Z,99617.88
2022-10-11T04:24:54.304Z,99617.25
2022-10-11T04:25:55.971Z,99617.03
2022-10-11T04:26:58.289Z,99616.00
2022-10-11T04:27:59.983Z,99615.19
2022-10-11T04:29:01.692Z,99618.47
2022-10-11T04:30:04.142Z,99612.94
2022-10-11T04:31:07.883Z,99618.66
2022-10-11T04:32:09.558Z,99616.25
2022-10-11T04:33:11.978Z,99619.09
2022-10-11T04:34:13.699Z,99616.84
2022-10-11T04:35:15.620Z,99615.63
2022-10-11T04:36:17.420Z,99622.38
2022-10-11T04:37:19.526Z,99624.19
2022-10-11T04:38:21.185Z,99616.44
2022-10-11T04:39:23.222Z,99623.38
2022-10-11T04:40:24.914Z,99623.38
2022-10-11T04:41:26.635Z,99623.59
2022-10-11T04:42:28.316Z,99622.56
2022-10-11T04:43:29.965Z,99623.38
2022-10-11T04:44:31.921Z,99622.78
2022-10-11T04:45:33.699Z,99626.03
2022-10-11T04:46:35.366Z,99621.13
2022-10-11T04:47:37.083Z,99619.31
2022-10-11T04:48:38.783Z,99622.56
2022-10-11T04:49:40.443Z,99624.59
2022-10-11T04:50:42.125Z,99625.44
2022-10-11T04:51:43.793Z,99617.91
2022-10-11T04:52:45.506Z,99622.16
2022-10-11T04:53:48.420Z,99606.69
2022-10-11T04:54:50.110Z,99626.44
2022-10-11T04:56:07.850Z,99621.75
2022-10-11T04:57:09.880Z,99629.50
2022-10-11T04:58:11.513Z,99630.09
2022-10-11T04:59:13.255Z,99626.84
2022-10-11T05:00:15.316Z,99632.13
2022-10-11T05:01:17.088Z,99626.84
2022-10-11T05:02:18.869Z,99625.19
2022-10-11T05:03:20.708Z,99616.44
2022-10-11T05:04:22.390Z,99633.38
2022-10-11T05:05:24.245Z,99621.75
2022-10-11T05:06:25.896Z,99633.38
2022-10-11T05:07:27.561Z,99626.59
2022-10-11T05:08:29.272Z,99626.59
2022-10-11T05:09:30.917Z,99631.75
2022-10-11T05:10:32.562Z,99632.38
2022-10-11T05:11:34.234Z,99628.72
2022-10-11T05:12:35.997Z,99626.06
2022-10-11T05:13:38.331Z,99629.94
2022-10-11T05:14:39.998Z,99628.53
2022-10-11T05:15:41.658Z,99629.31
2022-10-11T05:16:43.333Z,99618.72
2022-10-11T05:17:44.999Z,99622.16
2022-10-11T05:18:46.696Z,99614.44
2022-10-11T05:19:48.430Z,99619.13
2022-10-11T05:20:58.430Z,99602.22
2022-10-11T05:22:00.095Z,99604.63
2022-10-11T05:23:01.846Z,99586.31
2022-10-11T05:24:03.548Z,99609.91
2022-10-11T05:25:05.594Z,99614.00
2022-10-11T05:26:08.083Z,99610.13
2022-10-11T05:27:10.008Z,99601.75
2022-10-11T05:28:11.763Z,99613.56
2022-10-11T05:29:13.477Z,99611.72
2022-10-11T05:30:15.151Z,99611.31
2022-10-11T05:31:17.154Z,99605.81
2022-10-11T05:32:18.814Z,99620.06
2022-10-11T05:33:20.952Z,99602.13
2022-10-11T05:34:22.695Z,99598.47
2022-10-11T05:35:24.381Z,99610.72
2022-10-11T05:36:26.319Z,99613.56
2022-10-11T05:37:28.017Z,99608.47
2022-10-11T05:38:29.868Z,99610.66
2022-10-11T05:39:32.021Z,99605.97
2022-10-11T05:40:33.780Z,99607.59
2022-10-11T05:41:35.570Z,99570.72
2022-10-11T05:42:37.896Z,99620.78
2022-10-11T05:43:39.573Z,99596.53
2022-10-11T05:44:41.265Z,99617.94
2022-10-11T05:45:44.076Z,99619.97
2022-10-11T05:46:45.889Z,99620.13
2022-10-11T05:47:47.569Z,99628.22
2022-10-11T05:48:49.246Z,99620.25
2022-10-11T05:49:50.957Z,99606.78
2022-10-11T05:50:53.230Z,99624.63
2022-10-11T05:51:54.957Z,99633.22
2022-10-11T05:52:56.742Z,99640.38
2022-10-11T05:53:58.414Z,99635.63
2022-10-11T05:55:00.091Z,99641.31
2022-10-11T05:56:02.074Z,99634.75
2022-10-11T05:57:04.055Z,99635.31
2022-10-11T05:58:06.834Z,99634.00
2022-10-11T05:59:08.481Z,99635.59
2022-10-11T06:00:10.963Z,99631.25
2022-10-11T06:01:26.929Z,99637.56
2022-10-11T06:02:28.727Z,99642.81
2022-10-11T06:03:30.693Z,99639.31
2022-10-11T06:04:37.167Z,99637.22
2022-10-11T06:05:39.424Z,99641.81
2022-10-11T06:06:41.077Z,99642.38
2022-10-11T06:07:43.209Z,99645.78
2022-10-11T06:08:45.524Z,99637.56
2022-10-11T06:09:47.165Z,99648.53
2022-10-11T06:10:48.845Z,99644.19
2022-10-11T06:11:50.544Z,99654.78
2022-10-11T06:12:52.312Z,99646.34
2022-10-11T06:13:56.103Z,99652.19
2022-10-11T06:14:57.771Z,99650.34
2022-10-11T06:15:59.440Z,99655.41
2022-10-11T06:17:01.170Z,99651.22
2022-10-11T06:18:02.837Z,99645.84
2022-10-11T06:19:05.004Z,99638.50
2022-10-11T06:20:07.313Z,99633.56
2022-10-11T06:21:09.054Z,99629.50
2022-10-11T06:22:12.360Z,99646.50
2022-10-11T06:23:14.041Z,99650.91
2022-10-11T06:24:16.067Z,99639.44
2022-10-11T06:25:17.815Z,99650.03
2022-10-11T06:26:19.696Z,99648.31
2022-10-11T06:27:21.418Z,99646.00
2022-10-11T06:28:23.275Z,99651.50
2022-10-11T06:29:25.002Z,99648.94
2022-10-11T06:30:26.671Z,99653.81
2022-10-11T06:31:28.374Z,99649.69
2022-10-11T06:32:30.041Z,99647.59
2022-10-11T06:33:31.829Z,99655.00
2022-10-11T06:34:33.491Z,99651.31
2022-10-11T06:35:35.146Z,99653.28
2022-10-11T06:36:36.820Z,99639.09
2022-10-11T06:37:38.527Z,99648.31
2022-10-11T06:38:44.760Z,99638.56
2022-10-11T06:39:46.965Z,99649.84
2022-10-11T06:40:48.666Z,99654.00
2022-10-11T06:41:50.326Z,99658.31
2022-10-11T06:42:51.961Z,99660.50
2022-10-11T06:43:53.687Z,99663.56
2022-10-11T06:44:55.331Z,99668.44
2022-10-11T06:46:00.108Z,99660.59
2022-10-11T06:47:01.839Z,99664.84
2022-10-11T06:48:05.834Z,99650.81
2022-10-11T06:49:07.745Z,99670.91
2022-10-11T06:50:09.661Z,99664.31
2022-10-11T06:51:12.921Z,99665.84
2022-10-11T06:52:14.624Z,99666.78
2022-10-11T06:53:16.379Z,99667.13
2022-10-11T06:54:18.217Z,99672.94
2022-10-11T06:55:19.917Z,99659.81
2022-10-11T06:56:21.793Z,99674.09
2022-10-11T06:57:23.493Z,99665.03
2022-10-11T06:58:25.154Z,99669.69
2022-10-11T06:59:26.850Z,99661.09
2022-10-11T07:00:28.571Z,99664.25
2022-10-11T07:01:30.393Z,99648.81
2022-10-11T07:02:32.433Z,99653.69
2022-10-11T07:03:34.533Z,99660.44
2022-10-11T07:04:36.251Z,99664.16
2022-10-11T07:05:37.933Z,99663.22
2022-10-11T07:06:41.138Z,99665.88
2022-10-11T07:07:42.965Z,99668.91
2022-10-11T07:08:44.829Z,99665.19
2022-10-11T07:09:46.489Z,99657.19
2022-10-11T07:10:48.139Z,99644.44
2022-10-11T07:11:49.890Z,99645.25
2022-10-11T07:12:51.558Z,99626.66
2022-10-11T07:13:59.123Z,99637.69
2022-10-11T07:15:00.936Z,99658.81
2022-10-11T07:16:04.836Z,99650.44
2022-10-11T07:17:06.728Z,99652.44
2022-10-11T07:18:08.436Z,99653.84
2022-10-11T07:19:10.127Z,99651.41
2022-10-11T07:20:12.450Z,99657.53
2022-10-11T07:21:15.703Z,99653.25
2022-10-11T07:22:17.658Z,99658.34
2022-10-11T07:23:19.394Z,99651.03
2022-10-11T07:24:21.122Z,99652.66
2022-10-11T07:25:22.784Z,99648.13
2022-10-11T07:26:24.461Z,99649.38
2022-10-11T07:27:26.260Z,99644.19
2022-10-11T07:28:31.530Z,99647.00
2022-10-11T07:29:33.337Z,99648.34
2022-10-11T07:30:39.401Z,99649.88
2022-10-11T07:31:43.970Z,99657.50
2022-10-11T07:32:45.641Z,99653.16
2022-10-11T07:33:47.452Z,99651.44
2022-10-11T07:34:49.472Z,99652.91
2022-10-11T07:35:51.260Z,99654.75
2022-10-11T07:36:52.936Z,99649.75
2022-10-11T07:37:55.125Z,99658.13
2022-10-11T07:38:56.764Z,99659.75
2022-10-11T07:39:58.414Z,99661.38
2022-10-11T07:41:05.413Z,99648.25
2022-10-11T07:42:08.349Z,99651.72
2022-10-11T07:43:10.732Z,99642.44
2022-10-11T07:44:12.389Z,99656.03
2022-10-11T07:45:14.172Z,99648.84
2022-10-11T07:46:17.172Z,99642.03
2022-10-11T07:47:18.891Z,99655.00
2022-10-11T07:48:21.261Z,99654.19
2022-10-11T07:49:22.915Z,99646.56
2022-10-11T07:50:25.040Z,99649.81
2022-10-11T07:51:26.729Z,99643.22
2022-10-11T07:52:28.450Z,99652.47
2022-10-11T07:53:30.179Z,99658.53
2022-10-11T07:54:32.944Z,99647.59
2022-10-11T07:55:40.228Z,99645.88
2022-10-11T07:56:41.961Z,99644.72
2022-10-11T07:57:43.575Z,99648.06
2022-10-11T07:58:49.219Z,99649.94
2022-10-11T07:59:50.876Z,99639.63
2022-10-11T08:00:54.157Z,99640.84
2022-10-11T08:01:55.977Z,99638.56
2022-10-11T08:02:57.639Z,99642.63
2022-10-11T08:03:59.445Z,99635.09
2022-10-11T08:05:01.191Z,99619.78
2022-10-11T08:06:05.758Z,99649.50
2022-10-11T08:07:07.696Z,99636.84
2022-10-11T08:08:09.342Z,99647.78
2022-10-11T08:09:12.266Z,99634.31
2022-10-11T08:10:13.918Z,99641.34
2022-10-11T08:11:28.047Z,99641.59
2022-10-11T08:12:29.738Z,99640.03
2022-10-11T08:13:32.261Z,99640.03
2022-10-11T08:14:33.913Z,99639.56
2022-10-11T08:15:35.618Z,99637.50
2022-10-11T08:16:41.053Z,99637.50
2022-10-11T08:17:42.726Z,99640.28
2022-10-11T08:18:44.517Z,99642.09
2022-10-11T08:19:46.192Z,99637.56
2022-10-11T08:20:48.089Z,99639.72
2022-10-11T08:21:49.791Z,99643.03
2022-10-11T08:22:51.462Z,99641.28
2022-10-11T08:23:53.130Z,99643.78
2022-10-11T08:24:54.791Z,99642.41
2022-10-11T08:25:57.322Z,99640.88
2022-10-11T08:26:59.090Z,99631.59
2022-10-11T08:28:00.792Z,99622.41
2022-10-11T08:29:03.496Z,99643.84
2022-10-11T08:30:05.751Z,99640.47
2022-10-11T08:31:07.559Z,99626.53
2022-10-11T08:32:12.100Z,99632.56
2022-10-11T08:33:13.782Z,99639.88
2022-10-11T08:34:15.472Z,99640.88
2022-10-11T08:35:17.293Z,99639.13
2022-10-11T08:36:18.996Z,99623.44
2022-10-11T08:37:20.745Z,99645.03
2022-10-11T08:38:23.310Z,99650.97
2022-10-11T08:39:24.973Z,99645.63
2022-10-11T08:40:27.882Z,99638.75
2022-10-11T08:41:57.398Z,99642.97
2022-10-11T08:43:04.208Z,99649.53
2022-10-11T08:44:14.699Z,99646.44
2022-10-11T08:45:33.254Z,99649.22
2022-10-11T08:46:35.382Z,99646.63
2022-10-11T08:47:44.163Z,99626.75
2022-10-11T08:48:49.346Z,99627.09
2022-10-11T08:49:51.341Z,99615.47
2022-10-11T08:50:54.664Z,99642.72
2022-10-11T08:52:02.681Z,99625.47
2022-10-11T08:53:19.833Z,99625.53
2022-10-11T08:54:29.846Z,99617.28
2022-10-11T08:55:42.045Z,99641.56
2022-10-11T08:56:45.494Z,99625.06
2022-10-11T08:57:53.873Z,99636.31
2022-10-11T08:59:13.730Z,99644.50
2022-10-11T09:00:18.983Z,99646.44
2022-10-11T09:01:26.077Z,99636.06
2022-10-11T09:03:03.011Z,99621.63
2022-10-11T09:04:04.171Z,99632.09
2022-10-11T09:05:10.846Z,99632.16
2022-10-11T09:06:47.648Z,99628.75
2022-10-11T09:07:49.225Z,99637.50
2022-10-11T09:09:29.167Z,99620.50
2022-10-11T09:10:33.818Z,99632.34
2022-10-11T09:11:42.681Z,99633.78
2022-10-11T09:12:56.626Z,99634.44
2022-10-11T09:14:14.487Z,99629.97
2022-10-11T09:15:18.853Z,99629.97
2022-10-11T09:16:35.520Z,99624.38
2022-10-11T09:17:59.000Z,99624.59
2022-10-11T09:19:51.441Z,99625.84
2022-10-11T09:20:53.256Z,99626.22
2022-10-11T09:22:14.912Z,99622.09
2022-10-11T09:23:52.860Z,99625.41
2022-10-11T09:25:23.195Z,99627.69
2022-10-11T09:26:33.513Z,99629.88
2022-10-11T09:27:57.646Z,99620.13
2022-10-11T09:29:17.539Z,99628.81
2022-10-11T09:30:20.386Z,99608.13
2022-10-11T09:31:23.392Z,99623.34
2022-10-11T09:32:31.073Z,99624.78
2022-10-11T09:33:36.883Z,99612.88
2022-10-11T09:34:38.671Z,99631.13
2022-10-11T09:35:46.374Z,99618.63
2022-10-11T09:37:26.855Z,99624.66
2022-10-11T09:38:38.712Z,99617.72
2022-10-11T09:39:48.067Z,99620.66
2022-10-11T09:41:21.830Z,99620.16
2022-10-11T09:42:23.589Z,99626.72
2022-10-11T09:43:25.586Z,99614.81
2022-10-11T09:44:39.113Z,99616.19
2022-10-11T09:45:49.280Z,99613.59
2022-10-11T09:46:55.913Z,99612.69
2022-10-11T09:48:00.684Z,99618.84
2022-10-11T09:49:12.236Z,99617.88
2022-10-11T09:50:22.051Z,99599.09
2022-10-11T09:51:27.385Z,99619.34
2022-10-11T09:52:30.421Z,99615.63
2022-10-11T09:53:53.958Z,99614.88
2022-10-11T09:55:01.403Z,99615.69
2022-10-11T09:56:05.333Z,99600.97
2022-10-11T09:57:19.701Z,99600.47
2022-10-11T09:58:34.003Z,99601.84
2022-10-11T09:59:35.735Z,99596.16
2022-10-11T10:00:38.594Z,99589.94
2022-10-11T10:01:40.317Z,99595.38
2022-10-11T10:02:47.623Z,99592.25
2022-10-11T10:04:05.051Z,99592.63
2022-10-11T10:05:06.672Z,99586.53
2022-10-11T10:06:16.601Z,99594.59
2022-10-11T10:07:18.282Z,99594.59
2022-10-11T10:08:24.995Z,99599.56
2022-10-11T10:09:30.282Z,99595.59
2022-10-11T10:10:55.867Z,99595.31
2022-10-11T10:12:12.209Z,99590.41
2022-10-11T10:13:27.441Z,99591.53
2022-10-11T10:14:30.806Z,99577.28
2022-10-11T10:15:36.675Z,99589.59
2022-10-11T10:16:38.388Z,99586.63
2022-10-11T10:17:51.936Z,99596.81
2022-10-11T10:18:57.444Z,99597.13
2022-10-11T10:20:00.684Z,99594.75
2022-10-11T10:21:03.599Z,99589.75
2022-10-11T10:22:05.508Z,99582.09
2022-10-11T10:23:11.044Z,99584.81
2022-10-11T10:24:27.747Z,99579.50
2022-10-11T10:25:42.319Z,99575.53
2022-10-11T10:27:07.578Z,99574.00
2022-10-11T10:28:27.169Z,99574.34
2022-10-11T10:29:28.854Z,99576.25
2022-10-11T10:30:35.414Z,99551.53
2022-10-11T10:32:12.973Z,99574.88
2022-10-11T10:33:11.985Z,99571.25
2022-10-11T10:34:29.985Z,99564.06
2022-10-11T10:35:33.548Z,99563.97
2022-10-11T10:36:38.716Z,99551.81
2022-10-11T10:38:07.113Z,99544.41
2022-10-11T10:39:24.900Z,99550.50
2022-10-11T10:40:50.375Z,99557.88
2022-10-11T10:41:52.183Z,99543.09
2022-10-11T10:42:53.897Z,99560.38
2022-10-11T10:43:58.462Z,99553.69
2022-10-11T10:45:00.545Z,99553.72
2022-10-11T10:46:20.794Z,99556.75
2022-10-11T10:47:53.275Z,99554.13
2022-10-11T10:49:41.613Z,99556.81
2022-10-11T10:51:24.110Z,99562.41
2022-10-11T10:52:56.044Z,99557.31
2022-10-11T10:53:57.695Z,99555.75
2022-10-11T10:55:15.847Z,99557.63
2022-10-11T10:56:26.904Z,99557.38
2022-10-11T10:57:46.990Z,99555.75
2022-10-11T10:59:17.825Z,99561.19
2022-10-11T11:00:24.510Z,99553.84
2022-10-11T11:01:32.779Z,99553.31
2022-10-11T11:05:04.197Z,99546.44
2022-10-11T11:06:18.680Z,99549.94
2022-10-11T11:07:49.743Z,99544.56
2022-10-11T11:09:11.919Z,99550.41
2022-10-11T11:10:19.360Z,99546.06
2022-10-11T11:11:27.011Z,99541.72
2022-10-11T11:12:50.449Z,99524.19
2022-10-11T11:14:03.978Z,99537.16
2022-10-11T11:15:31.285Z,99530.91
2022-10-11T11:16:36.920Z,99530.88
2022-10-11T11:17:56.770Z,99524.56
2022-10-11T11:19:07.185Z,99523.78
2022-10-11T11:20:34.347Z,99519.63
2022-10-11T11:21:55.096Z,99519.66
2022-10-11T11:23:02.876Z,99517.16
2022-10-11T11:24:25.932Z,99520.91
2022-10-11T11:25:48.550Z,99517.31
2022-10-11T11:26:59.190Z,99515.53
2022-10-11T11:28:42.190Z,99511.97
2022-10-11T11:30:00.332Z,99503.28
2022-10-11T11:31:36.586Z,99503.94
2022-10-11T11:32:40.300Z,99505.06
2022-10-11T11:33:48.616Z,99498.47
2022-10-11T11:35:01.545Z,99487.00
2022-10-11T11:36:09.168Z,99499.59
2022-10-11T11:37:11.040Z,99497.78
2022-10-11T11:38:29.213Z,99496.47
2022-10-11T11:39:51.938Z,99506.19
2022-10-11T11:41:00.416Z,99495.47
2022-10-11T11:42:09.751Z,99505.97
2022-10-11T11:43:39.803Z,99497.28
2022-10-11T11:44:47.153Z,99495.75
2022-10-11T11:45:55.332Z,99507.28
2022-10-11T11:47:12.014Z,99509.31
2022-10-11T11:48:25.234Z,99506.66
2022-10-11T11:49:49.383Z,99503.78
2022-10-11T11:51:02.531Z,99501.00
2022-10-11T11:52:07.286Z,99497.91
2022-10-11T11:53:20.535Z,99496.28
2022-10-11T11:54:36.265Z,99497.44
2022-10-11T11:55:42.556Z,99476.84
2022-10-11T11:56:59.392Z,99502.81
2022-10-11T11:58:38.482Z,99502.69
2022-10-11T12:00:12.564Z,99511.63
2022-10-11T12:01:26.513Z,99511.63
2022-10-11T12:02:51.971Z,99502.56
2022-10-11T12:04:03.152Z,99495.75
2022-10-11T12:05:08.115Z,99496.94
2022-10-11T12:06:20.486Z,99498.88
2022-10-11T12:07:24.479Z,99497.53
2022-10-11T12:08:31.699Z,99486.78
2022-10-11T12:09:34.751Z,99488.47
2022-10-11T12:10:55.684Z,99488.50
2022-10-11T12:12:01.702Z,99493.09
2022-10-11T12:13:32.436Z,99493.91
2022-10-11T12:14:38.004Z,99500.09
2022-10-11T12:15:39.774Z,99495.31
2022-10-11T12:17:07.245Z,99490.16
2022-10-11T12:18:16.996Z,99489.91
2022-10-11T12:19:20.568Z,99466.81
2022-10-11T12:20:26.888Z,99482.44
2022-10-11T12:21:31.445Z,99487.03
2022-10-11T12:22:39.813Z,99486.75
2022-10-11T12:23:48.205Z,99489.75
2022-10-11T12:24:59.943Z,99472.81
2022-10-11T12:26:28.898Z,99484.66
2022-10-11T12:27:43.316Z,99479.03
2022-10-11T12:28:59.980Z,99468.00
2022-10-11T12:30:01.860Z,99479.88
2022-10-11T12:31:16.446Z,99488.97
2022-10-11T12:32:36.342Z,99487.63
2022-10-11T12:33:37.969Z,99473.94
2022-10-11T12:34:44.895Z,99473.66
2022-10-11T12:35:55.702Z,99472.06
2022-10-11T12:36:57.388Z,99476.44
2022-10-11T12:38:16.939Z,99475.88
2022-10-11T12:39:18.551Z,99481.19
2022-10-11T12:40:51.328Z,99476.19
2022-10-11T12:42:06.912Z,99483.16
2022-10-11T12:43:14.727Z,99474.81
2022-10-11T12:44:19.579Z,99470.81
2022-10-11T12:45:21.227Z,99474.25
2022-10-11T12:46:28.970Z,99480.88
2022-10-11T12:47:52.626Z,99484.63
2022-10-11T12:49:09.126Z,99480.53
2022-10-11T12:50:15.912Z,99481.34
2022-10-11T12:51:58.140Z,99482.44
2022-10-11T12:53:05.621Z,99480.63
2022-10-11T12:54:27.108Z,99482.25
2022-10-11T12:56:09.122Z,99491.41
2022-10-11T12:57:29.733Z,99489.84
2022-10-11T12:58:41.302Z,99489.56
2022-10-11T12:59:46.855Z,99468.28
2022-10-11T13:00:51.313Z,99490.38
2022-10-11T13:01:56.083Z,99487.44
2022-10-11T13:03:29.683Z,99488.25
2022-10-11T13:04:34.306Z,99487.44
2022-10-11T13:05:43.221Z,99496.06
2022-10-11T13:06:49.814Z,99494.72
2022-10-11T13:07:54.227Z,99493.09
2022-10-11T13:09:04.093Z,99493.59
2022-10-11T13:10:06.260Z,99494.41